KGLE/GLE METAR and TAF weather

Enter ICAO airport designator
Station Type Date Time Source
KGLE METAR 2021/09/28 16:35 UTC NOAA

KGLE 281635Z AUTO 20008KT 10SM CLR 30/17 A2991 RMK AO2 T03020171


Station Type Date Time Source
KGLE Decoded METAR 2021/09/28 16:35 UTC NOAA

Gainesville, Gainesville Municipal Airport, TX, United States (KGLE) 33-39-05N 097-11-49W
Sep 28, 2021 - 12:35 PM EDT / 2021.09.28 1635 UTC
Wind: from the SSW (200 degrees) at 9 MPH (8 KT):0
Visibility: 10 mile(s):0
Sky conditions: clear
Temperature: 86.4 F (30.2 C)
Dew Point: 62.8 F (17.1 C)
Relative Humidity: 45%
Pressure (altimeter): 29.91 in. Hg (1012 hPa)
ob: KGLE 281635Z AUTO 20008KT 10SM CLR 30/17 A2991 RMK AO2 T03020171
cycle: 16

Station Type Date Time Source
KGLE TAF UTC NOAA

Error!

Example: see airport list